Terminal Aerodrome Forecast
Issued by NWS

Home | Current Version | Previous Version | Text Only | Print | Product List | Glossary On
Versions: 1 2 3 4 5 6 7 8 9 10 11 12 13 14 15 16 17
801
FTUS42 TJSJ 240539
TAFISX
TAF
TISX 240539Z 2406/2506 06010KT P6SM VCSH FEW025
      TEMPO 2406/2407 RA BKN025
     FM241300 10014KT P6SM VCSH SCT025 SCT040
     FM242200 08008KT P6SM FEW030=

USA.gov is the U.S. government's official web portal to all federal, state and local government web resources and services.